createdAt,value
2023-02-27T00:01:36.078Z,99003.66
2023-02-27T00:03:40.768Z,99005.54
2023-02-27T00:05:40.673Z,99005.48
2023-02-27T00:08:06.708Z,98997.86
2023-02-27T00:10:24.967Z,99015.62
2023-02-27T00:12:40.608Z,99013.61
2023-02-27T00:14:51.783Z,99008.29
2023-02-27T00:17:07.061Z,99019.86
2023-02-27T00:19:21.591Z,99014.80
2023-02-27T00:21:38.270Z,99018.29
2023-02-27T00:23:57.092Z,99018.75
2023-02-27T00:26:03.954Z,99018.11
2023-02-27T00:28:17.745Z,99028.41
2023-02-27T00:30:16.453Z,99029.71
2023-02-27T00:32:30.362Z,99032.19
2023-02-27T00:34:26.502Z,99030.23
2023-02-27T00:36:31.867Z,99021.20
2023-02-27T00:38:34.628Z,99027.14
2023-02-27T00:40:28.230Z,99028.92
2023-02-27T00:42:33.380Z,99012.91
2023-02-27T00:44:38.646Z,99030.29
2023-02-27T00:47:13.314Z,99029.33
2023-02-27T00:49:25.327Z,99030.41
2023-02-27T00:51:13.209Z,99032.43
2023-02-27T00:53:08.780Z,99033.40
2023-02-27T00:55:34.842Z,99036.38
2023-02-27T00:57:40.429Z,99034.86
2023-02-27T00:59:28.159Z,99035.48
2023-02-27T01:01:33.290Z,99035.56
2023-02-27T01:03:47.092Z,99036.36
2023-02-27T01:05:41.084Z,99029.19
2023-02-27T01:07:44.391Z,99022.42
2023-02-27T01:09:36.887Z,99027.48
2023-02-27T01:11:39.185Z,99027.74
2023-02-27T01:13:53.707Z,99030.94
2023-02-27T01:15:51.962Z,99025.92
2023-02-27T01:17:49.154Z,99038.02
2023-02-27T01:19:22.666Z,99031.83
2023-02-27T01:21:19.060Z,99037.67
2023-02-27T01:23:34.044Z,99034.12
2023-02-27T01:25:49.926Z,99037.63
2023-02-27T01:27:55.061Z,99033.06
2023-02-27T01:30:01.095Z,99039.07
2023-02-27T01:32:00.238Z,99041.19
2023-02-27T01:34:03.150Z,99042.55
2023-02-27T01:36:26.346Z,99025.09
2023-02-27T01:38:47.507Z,99046.17
2023-02-27T01:40:50.454Z,99045.45
2023-02-27T01:43:08.433Z,99047.04
2023-02-27T01:45:29.223Z,99045.22
2023-02-27T01:47:42.052Z,99043.73
2023-02-27T01:49:59.299Z,99044.17
2023-02-27T01:52:13.591Z,99048.33
2023-02-27T01:54:27.545Z,99047.55
2023-02-27T01:56:30.607Z,99050.44
2023-02-27T01:58:27.877Z,99049.30
2023-02-27T02:00:46.757Z,99051.77
2023-02-27T02:02:55.636Z,99050.04
2023-02-27T02:05:03.269Z,99051.02
2023-02-27T02:07:09.299Z,99054.23
2023-02-27T02:09:15.382Z,99056.02
2023-02-27T02:11:19.950Z,99056.65
2023-02-27T02:13:24.528Z,99055.85
2023-02-27T02:15:26.074Z,99054.31
2023-02-27T02:17:40.248Z,99055.73
2023-02-27T02:19:55.862Z,99049.27
2023-02-27T02:22:26.576Z,99048.35
2023-02-27T02:25:00.530Z,99053.91
2023-02-27T02:27:30.146Z,99054.17
2023-02-27T02:29:56.067Z,99053.34
2023-02-27T02:32:16.577Z,99054.79
2023-02-27T02:34:47.484Z,99058.70
2023-02-27T02:37:15.466Z,99060.98
2023-02-27T02:39:40.030Z,99066.79
2023-02-27T02:42:01.096Z,99068.39
2023-02-27T02:44:14.232Z,99073.48
2023-02-27T02:46:43.760Z,99079.68
2023-02-27T02:48:49.467Z,99080.79
2023-02-27T02:51:17.000Z,99084.98
2023-02-27T02:53:37.321Z,99082.96
2023-02-27T02:56:04.722Z,99089.93
2023-02-27T02:58:31.786Z,99091.17
2023-02-27T03:01:04.062Z,99092.98
2023-02-27T03:03:42.778Z,99095.83
2023-02-27T03:06:31.040Z,99102.20
2023-02-27T03:09:06.574Z,99108.38
2023-02-27T03:11:13.530Z,99115.90
2023-02-27T03:13:38.851Z,99108.13
2023-02-27T03:16:03.045Z,99117.08
2023-02-27T03:18:01.650Z,99116.63
2023-02-27T03:20:19.851Z,99101.97
2023-02-27T03:22:09.695Z,99119.16
2023-02-27T03:24:19.637Z,99121.02
2023-02-27T03:26:35.528Z,99124.73
2023-02-27T03:28:51.972Z,99126.64
2023-02-27T03:31:10.040Z,99106.13
2023-02-27T03:33:39.310Z,99132.19
2023-02-27T03:35:48.389Z,99126.96
2023-02-27T03:38:09.539Z,99134.40
2023-02-27T03:40:50.929Z,99135.42
2023-02-27T03:43:17.677Z,99133.73
2023-02-27T03:45:50.735Z,99143.05
2023-02-27T03:48:07.521Z,99139.17
2023-02-27T03:50:29.686Z,99146.92
2023-02-27T03:52:55.633Z,99144.41
2023-02-27T03:55:24.082Z,99152.34
2023-02-27T03:57:49.333Z,99148.83
2023-02-27T04:00:04.022Z,99152.06
2023-02-27T04:15:02.718Z,99175.73
2023-02-27T04:17:24.585Z,99179.40
2023-02-27T04:19:57.759Z,99180.82
2023-02-27T04:22:36.442Z,99180.17
2023-02-27T04:25:15.376Z,99181.84
2023-02-27T04:27:35.284Z,99176.52
2023-02-27T04:30:02.181Z,99175.45
2023-02-27T04:32:31.880Z,99175.61
2023-02-27T04:35:13.719Z,99180.92
2023-02-27T04:37:54.739Z,99183.79
2023-02-27T04:40:24.642Z,99182.76
2023-02-27T04:42:21.289Z,99182.25
2023-02-27T04:44:46.709Z,99185.61
2023-02-27T04:47:13.539Z,99183.45
2023-02-27T04:49:31.032Z,99189.89
2023-02-27T04:51:54.647Z,99186.84
2023-02-27T04:54:22.387Z,99191.80
2023-02-27T04:56:35.330Z,99192.02
2023-02-27T04:58:59.682Z,99188.18
2023-02-27T05:01:23.066Z,99193.32
2023-02-27T05:03:32.692Z,99195.52
2023-02-27T05:05:58.133Z,99198.89
2023-02-27T05:08:09.144Z,99205.09
2023-02-27T05:10:44.857Z,99208.42
2023-02-27T05:13:22.481Z,99203.83
2023-02-27T05:15:46.734Z,99206.00
2023-02-27T05:18:13.875Z,99204.15
2023-02-27T05:20:32.700Z,99201.86
2023-02-27T05:23:13.576Z,99202.58
2023-02-27T05:25:32.643Z,99208.74
2023-02-27T05:27:59.351Z,99213.09
2023-02-27T05:30:35.573Z,99208.35
2023-02-27T05:32:55.732Z,99211.73
2023-02-27T05:35:36.487Z,99217.45
2023-02-27T05:37:46.085Z,99226.45
2023-02-27T05:40:12.783Z,99230.48
2023-02-27T05:42:38.310Z,99232.23
2023-02-27T05:44:54.911Z,99232.20
2023-02-27T05:47:21.080Z,99240.38
2023-02-27T05:49:47.743Z,99244.73
2023-02-27T05:52:03.747Z,99243.73
2023-02-27T05:54:34.913Z,99251.23
2023-02-27T05:56:51.608Z,99255.92
2023-02-27T05:59:22.299Z,99252.71
2023-02-27T06:01:33.005Z,99260.39
2023-02-27T06:03:58.895Z,99255.30
2023-02-27T06:06:15.409Z,99259.27
2023-02-27T06:08:32.376Z,99254.89
2023-02-27T06:10:59.452Z,99263.83
2023-02-27T06:13:13.710Z,99262.20
2023-02-27T06:15:32.556Z,99267.26
2023-02-27T06:17:59.594Z,99270.46
2023-02-27T06:20:26.358Z,99269.86
2023-02-27T06:22:39.642Z,99268.48
2023-02-27T06:24:59.118Z,99273.20
2023-02-27T06:27:21.758Z,99268.36
2023-02-27T06:29:47.999Z,99272.09
2023-02-27T06:32:15.780Z,99268.40
2023-02-27T06:34:32.625Z,99274.33
2023-02-27T06:36:52.168Z,99275.88
2023-02-27T06:39:18.299Z,99278.41
2023-02-27T06:41:04.634Z,99280.66
2023-02-27T06:43:30.927Z,99282.15
2023-02-27T06:45:36.510Z,99286.89
2023-02-27T06:48:11.716Z,99286.34
2023-02-27T06:50:48.477Z,99288.25
2023-02-27T06:53:10.409Z,99291.15
2023-02-27T06:55:26.443Z,99297.24
2023-02-27T06:57:51.260Z,99302.67
2023-02-27T07:00:17.317Z,99302.04
2023-02-27T07:02:41.189Z,99303.66
2023-02-27T07:05:09.336Z,99301.50
2023-02-27T07:07:40.937Z,99303.77
2023-02-27T07:09:58.694Z,99306.07
2023-02-27T07:12:25.660Z,99309.20
2023-02-27T07:14:44.391Z,99309.97
2023-02-27T07:17:10.988Z,99315.02
2023-02-27T07:19:15.863Z,99317.19
2023-02-27T07:21:42.409Z,99319.63
2023-02-27T07:24:06.615Z,99322.10
2023-02-27T07:26:28.933Z,99319.02
2023-02-27T07:29:00.713Z,99319.98
2023-02-27T07:31:07.431Z,99323.52
2023-02-27T07:33:41.672Z,99319.29
2023-02-27T07:36:16.565Z,99314.73
2023-02-27T07:38:22.322Z,99326.13
2023-02-27T07:40:48.443Z,99329.72
2023-02-27T07:43:14.949Z,99330.19
2023-02-27T07:45:41.689Z,99335.38
2023-02-27T07:48:08.128Z,99331.17
2023-02-27T07:50:32.634Z,99333.67
2023-02-27T07:52:46.716Z,99332.92
2023-02-27T07:55:15.371Z,99338.66
2023-02-27T07:57:33.526Z,99344.58
2023-02-27T07:59:51.477Z,99346.23
2023-02-27T08:02:01.283Z,99346.91
2023-02-27T08:04:18.427Z,99347.89
2023-02-27T08:06:32.729Z,99343.39
2023-02-27T08:08:47.321Z,99349.20
2023-02-27T08:11:03.824Z,99350.20
2023-02-27T08:15:54.284Z,99356.38
2023-02-27T08:18:08.920Z,99357.77
2023-02-27T08:20:24.595Z,99359.66
2023-02-27T08:22:40.854Z,99363.20
2023-02-27T08:25:16.103Z,99361.13
2023-02-27T08:27:16.056Z,99366.41
2023-02-27T08:29:51.045Z,99366.83
2023-02-27T08:32:17.119Z,99370.77
2023-02-27T08:34:30.157Z,99366.07
2023-02-27T08:36:57.403Z,99371.06
2023-02-27T08:39:24.171Z,99374.56
2023-02-27T08:41:25.340Z,99382.14
2023-02-27T08:43:51.753Z,99375.45
2023-02-27T08:46:18.911Z,99375.06
2023-02-27T08:48:32.531Z,99380.97
2023-02-27T08:50:47.233Z,99394.71
2023-02-27T08:53:06.701Z,99388.05
2023-02-27T08:55:33.410Z,99394.13
2023-02-27T08:57:59.280Z,99400.27
2023-02-27T09:00:21.890Z,99397.64
2023-02-27T09:02:33.727Z,99402.14
2023-02-27T09:04:59.334Z,99401.58
2023-02-27T09:07:33.953Z,99406.95
2023-02-27T09:09:20.673Z,99411.45
2023-02-27T09:11:49.086Z,99410.69
2023-02-27T09:17:03.710Z,99408.21
2023-02-27T09:19:28.113Z,99416.00
2023-02-27T09:21:33.105Z,99411.30
2023-02-27T09:24:19.159Z,99412.74
2023-02-27T09:26:44.295Z,99423.70
2023-02-27T09:29:01.820Z,99431.20
2023-02-27T09:31:18.230Z,99426.23
2023-02-27T09:33:32.405Z,99423.68
2023-02-27T09:35:58.706Z,99421.70
2023-02-27T09:38:12.736Z,99426.95
2023-02-27T09:40:41.045Z,99424.61
2023-02-27T09:43:09.987Z,99426.26
2023-02-27T09:45:39.151Z,99429.84
2023-02-27T09:48:14.222Z,99428.63
2023-02-27T09:50:47.327Z,99434.69
2023-02-27T09:53:14.383Z,99438.23
2023-02-27T09:55:33.549Z,99438.66
2023-02-27T09:58:06.732Z,99443.35
2023-02-27T10:00:26.621Z,99441.88
2023-02-27T10:03:04.071Z,99440.39
2023-02-27T10:05:27.615Z,99436.98
2023-02-27T10:08:09.516Z,99442.30
2023-02-27T10:10:24.981Z,99445.55
2023-02-27T10:12:53.458Z,99448.65
2023-02-27T10:15:31.059Z,99447.25
2023-02-27T10:17:10.778Z,99456.44
2023-02-27T10:19:14.518Z,99455.62
2023-02-27T10:21:31.154Z,99455.32
2023-02-27T10:23:57.189Z,99459.41
2023-02-27T10:26:10.053Z,99462.71
2023-02-27T10:27:44.105Z,99461.86
2023-02-27T10:30:12.945Z,99458.10
2023-02-27T10:33:55.884Z,99456.48
2023-02-27T10:35:45.783Z,99447.95
2023-02-27T10:37:16.382Z,99450.54
2023-02-27T10:39:03.751Z,99452.58
2023-02-27T10:40:35.334Z,99449.14
2023-02-27T10:42:15.842Z,99452.69
2023-02-27T10:44:42.680Z,99452.59
2023-02-27T10:46:51.351Z,99453.48
2023-02-27T10:49:13.558Z,99456.95
2023-02-27T10:51:44.545Z,99461.23
2023-02-27T10:54:13.882Z,99456.48
2023-02-27T10:56:20.625Z,99457.13
2023-02-27T10:58:28.783Z,99461.05
2023-02-27T11:00:38.932Z,99445.30
2023-02-27T11:02:51.542Z,99469.94
2023-02-27T11:05:34.768Z,99463.70
2023-02-27T11:07:49.104Z,99464.15
2023-02-27T11:10:04.668Z,99464.13
2023-02-27T11:12:21.186Z,99465.11
2023-02-27T11:14:25.225Z,99458.10
2023-02-27T11:16:32.477Z,99436.25
2023-02-27T11:18:57.849Z,99455.92
2023-02-27T11:21:24.223Z,99449.66
2023-02-27T11:23:00.653Z,99451.15
2023-02-27T11:25:15.179Z,99443.38
2023-02-27T11:27:26.256Z,99446.04
2023-02-27T11:29:48.093Z,99446.16
2023-02-27T11:32:09.825Z,99445.48
2023-02-27T11:34:09.461Z,99444.52
2023-02-27T11:36:23.894Z,99444.42
2023-02-27T11:38:36.665Z,99441.38
2023-02-27T11:40:56.207Z,99439.26
2023-02-27T11:43:02.247Z,99434.37
2023-02-27T11:46:10.350Z,99438.39
2023-02-27T11:48:01.305Z,99436.13
2023-02-27T11:50:31.400Z,99438.35
2023-02-27T11:52:58.313Z,99436.75
2023-02-27T11:55:27.902Z,99431.05
2023-02-27T11:57:54.535Z,99431.19
2023-02-27T12:00:38.706Z,99429.48
2023-02-27T12:03:04.837Z,99433.78
2023-02-27T12:05:48.168Z,99430.54
2023-02-27T12:08:14.380Z,99428.48
2023-02-27T12:10:41.842Z,99434.14
2023-02-27T12:12:49.350Z,99431.73
2023-02-27T12:15:15.348Z,99435.23
2023-02-27T12:17:38.471Z,99422.98
2023-02-27T12:20:01.277Z,99439.18
2023-02-27T12:22:32.004Z,99441.30
2023-02-27T12:25:08.228Z,99444.44
2023-02-27T12:27:36.422Z,99443.98
2023-02-27T12:29:54.361Z,99442.19
2023-02-27T12:32:25.394Z,99436.58
2023-02-27T12:34:48.245Z,99439.13
2023-02-27T12:37:02.733Z,99435.20
2023-02-27T12:39:28.596Z,99442.48
2023-02-27T12:41:23.244Z,99443.57
2023-02-27T12:43:44.257Z,99449.60
2023-02-27T12:46:21.303Z,99451.73
2023-02-27T12:49:09.099Z,99451.58
2023-02-27T12:51:41.586Z,99456.06
2023-02-27T12:54:00.190Z,99449.61
2023-02-27T12:56:01.940Z,99453.52
2023-02-27T12:58:42.788Z,99456.35
2023-02-27T13:01:03.342Z,99460.48
2023-02-27T13:03:36.232Z,99466.33
2023-02-27T13:06:11.540Z,99469.33
2023-02-27T13:08:38.819Z,99468.52
2023-02-27T13:10:51.264Z,99475.25
2023-02-27T13:13:36.808Z,99468.33
2023-02-27T13:16:05.903Z,99472.49
2023-02-27T13:18:49.533Z,99469.68
2023-02-27T13:21:06.649Z,99466.98
2023-02-27T13:23:48.146Z,99470.43
2023-02-27T13:26:00.241Z,99453.62
2023-02-27T13:28:23.821Z,99469.52
2023-02-27T13:30:33.133Z,99477.98
2023-02-27T13:33:05.139Z,99480.42
2023-02-27T13:35:25.815Z,99481.80
2023-02-27T13:37:55.190Z,99485.13
2023-02-27T13:40:09.420Z,99492.65
2023-02-27T13:42:34.018Z,99491.39
2023-02-27T13:47:17.266Z,99482.38
2023-02-27T13:48:53.707Z,99494.55
2023-02-27T13:51:20.215Z,99487.10
2023-02-27T13:53:28.043Z,99497.77
2023-02-27T13:55:35.328Z,99495.34
2023-02-27T13:57:53.831Z,99495.45
2023-02-27T14:00:13.254Z,99489.48
2023-02-27T14:02:46.600Z,99488.96
2023-02-27T14:04:58.967Z,99491.64
2023-02-27T14:07:02.399Z,99483.73
2023-02-27T14:09:14.346Z,99490.80
2023-02-27T14:11:40.045Z,99490.91
2023-02-27T14:14:18.493Z,99489.59
2023-02-27T14:16:31.371Z,99490.98
2023-02-27T14:18:34.262Z,99492.61
2023-02-27T14:20:40.653Z,99495.20
2023-02-27T14:23:05.029Z,99496.84
2023-02-27T14:25:28.865Z,99499.63
2023-02-27T14:27:36.869Z,99505.79
2023-02-27T14:29:36.268Z,99508.98
2023-02-27T14:31:51.048Z,99508.51
2023-02-27T14:34:05.693Z,99503.15
2023-02-27T14:36:16.244Z,99504.93
2023-02-27T14:38:41.067Z,99506.67
2023-02-27T14:41:10.463Z,99512.64
2023-02-27T14:44:07.062Z,99516.92
2023-02-27T14:46:29.447Z,99517.95
2023-02-27T14:48:38.171Z,99512.23
2023-02-27T14:51:04.150Z,99498.94
2023-02-27T14:53:23.952Z,99515.13
2023-02-27T14:55:30.116Z,99522.09
2023-02-27T14:57:55.885Z,99521.06
2023-02-27T15:00:11.465Z,99524.46
2023-02-27T15:02:27.927Z,99530.09
2023-02-27T15:04:01.416Z,99532.63
2023-02-27T15:06:09.664Z,99533.20
2023-02-27T15:08:07.623Z,99531.92
2023-02-27T15:10:33.108Z,99531.04
2023-02-27T15:12:38.675Z,99532.34
2023-02-27T15:14:39.534Z,99534.44
2023-02-27T15:17:12.346Z,99535.20
2023-02-27T15:19:15.523Z,99535.41
2023-02-27T15:21:29.671Z,99535.73
2023-02-27T15:23:22.679Z,99538.19
2023-02-27T15:26:00.427Z,99542.20
2023-02-27T15:28:26.454Z,99539.05
2023-02-27T15:30:43.689Z,99543.30
2023-02-27T15:32:50.728Z,99546.58
2023-02-27T15:35:17.493Z,99546.70
2023-02-27T15:37:25.148Z,99550.61
2023-02-27T15:39:47.149Z,99556.69
2023-02-27T15:41:52.631Z,99560.30
2023-02-27T15:43:56.938Z,99559.84
2023-02-27T15:46:11.694Z,99555.39
2023-02-27T15:48:37.874Z,99561.75
2023-02-27T15:51:01.489Z,99570.46
2023-02-27T15:53:35.653Z,99564.67
2023-02-27T15:55:42.239Z,99561.02
2023-02-27T15:58:16.660Z,99578.50
2023-02-27T16:00:21.254Z,99583.02
2023-02-27T16:02:37.317Z,99587.59
2023-02-27T16:05:06.053Z,99587.14
2023-02-27T16:07:18.867Z,99590.55
2023-02-27T16:09:20.680Z,99595.81
2023-02-27T16:11:49.491Z,99596.98
2023-02-27T16:14:40.217Z,99600.77
2023-02-27T16:17:03.528Z,99597.66
2023-02-27T16:19:38.694Z,99605.05
2023-02-27T16:22:08.021Z,99608.40
2023-02-27T16:24:51.008Z,99612.98
2023-02-27T16:27:17.184Z,99602.86
2023-02-27T16:29:28.341Z,99615.73
2023-02-27T16:31:57.084Z,99616.63
2023-02-27T16:34:42.687Z,99623.63
2023-02-27T16:36:57.518Z,99632.36
2023-02-27T16:39:11.638Z,99633.76
2023-02-27T16:41:27.809Z,99640.44
2023-02-27T16:43:51.393Z,99640.55
2023-02-27T16:46:08.641Z,99648.88
2023-02-27T16:48:32.407Z,99647.73
2023-02-27T16:50:53.277Z,99647.39
2023-02-27T16:52:59.609Z,99650.65
2023-02-27T16:54:31.863Z,99652.24
2023-02-27T16:56:55.641Z,99656.30
2023-02-27T16:58:59.581Z,99665.17
2023-02-27T17:01:14.116Z,99667.02
2023-02-27T17:02:51.680Z,99665.00
2023-02-27T17:05:10.099Z,99663.88
2023-02-27T17:07:25.113Z,99664.23
2023-02-27T17:09:51.364Z,99671.62
2023-02-27T17:12:20.159Z,99667.41
2023-02-27T17:14:32.264Z,99675.52
2023-02-27T17:16:47.677Z,99680.80
2023-02-27T17:19:04.611Z,99686.01
2023-02-27T17:20:52.332Z,99684.14
2023-02-27T17:23:18.573Z,99679.25
2023-02-27T17:25:44.125Z,99679.35
2023-02-27T17:27:58.800Z,99683.02
2023-02-27T17:30:34.700Z,99680.75
2023-02-27T17:32:33.817Z,99683.11
2023-02-27T17:35:08.697Z,99686.67
2023-02-27T17:37:41.691Z,99687.81
2023-02-27T17:39:57.457Z,99681.80
2023-02-27T17:42:19.328Z,99667.52
2023-02-27T17:44:32.906Z,99694.79
2023-02-27T17:46:25.324Z,99694.94
2023-02-27T17:48:40.983Z,99693.05
2023-02-27T17:51:04.604Z,99699.23
2023-02-27T17:53:16.721Z,99701.14
2023-02-27T17:55:22.177Z,99705.60
2023-02-27T17:57:19.035Z,99705.03
2023-02-27T17:59:04.256Z,99708.48
2023-02-27T18:01:37.311Z,99702.84
2023-02-27T18:03:46.632Z,99701.20
2023-02-27T18:06:02.514Z,99701.35
2023-02-27T18:08:20.652Z,99704.42
2023-02-27T18:10:06.148Z,99708.97
2023-02-27T18:12:32.466Z,99705.78
2023-02-27T18:14:47.718Z,99699.98
2023-02-27T18:17:02.545Z,99702.55
2023-02-27T18:19:18.292Z,99708.89
2023-02-27T18:21:35.324Z,99713.18
2023-02-27T18:23:51.545Z,99718.03
2023-02-27T18:26:06.406Z,99716.76
2023-02-27T18:28:17.440Z,99714.05
2023-02-27T18:30:00.705Z,99722.48
2023-02-27T18:31:40.746Z,99723.23
2023-02-27T18:33:42.616Z,99725.04
2023-02-27T18:35:22.774Z,99723.95
2023-02-27T18:37:25.751Z,99725.80
2023-02-27T18:39:32.163Z,99724.28
2023-02-27T18:41:31.683Z,99721.63
2023-02-27T18:43:20.010Z,99720.92
2023-02-27T18:45:17.008Z,99725.70
2023-02-27T18:47:07.336Z,99714.16
2023-02-27T18:49:12.521Z,99726.28
2023-02-27T18:51:12.162Z,99730.54
2023-02-27T18:53:32.669Z,99730.29
2023-02-27T18:55:37.156Z,99730.83
2023-02-27T18:58:01.761Z,99731.50
2023-02-27T19:00:10.880Z,99723.22
2023-02-27T19:02:37.927Z,99734.21
2023-02-27T19:05:06.136Z,99739.70
2023-02-27T19:07:09.573Z,99738.14
2023-02-27T19:09:32.876Z,99737.86
2023-02-27T19:11:32.929Z,99738.79
2023-02-27T19:13:09.450Z,99738.93
2023-02-27T19:15:15.235Z,99736.30
2023-02-27T19:17:03.851Z,99738.86
2023-02-27T19:19:12.348Z,99744.70
2023-02-27T19:21:16.909Z,99742.09
2023-02-27T19:23:38.984Z,99738.54
2023-02-27T19:25:53.704Z,99744.05
2023-02-27T19:28:10.412Z,99736.31
2023-02-27T19:30:14.535Z,99743.77
2023-02-27T19:32:24.206Z,99741.59
2023-02-27T19:34:21.069Z,99747.02
2023-02-27T19:36:37.757Z,99748.05
2023-02-27T19:38:42.526Z,99746.70
2023-02-27T19:40:55.212Z,99749.90
2023-02-27T19:43:09.934Z,99754.48
2023-02-27T19:44:56.039Z,99754.19
2023-02-27T19:47:03.264Z,99755.61
2023-02-27T19:49:18.102Z,99754.98
2023-02-27T19:51:10.786Z,99736.02
2023-02-27T19:53:37.262Z,99759.98
2023-02-27T19:55:43.548Z,99765.98
2023-02-27T19:57:48.325Z,99757.54
2023-02-27T20:00:01.034Z,99760.80
2023-02-27T20:02:03.000Z,99764.39
2023-02-27T20:03:56.055Z,99764.84
2023-02-27T20:06:11.470Z,99771.45
2023-02-27T20:08:28.489Z,99770.12
2023-02-27T20:10:39.437Z,99773.51
2023-02-27T20:12:24.520Z,99772.40
2023-02-27T20:14:02.864Z,99771.38
2023-02-27T20:16:17.267Z,99771.65
2023-02-27T20:18:32.705Z,99774.98
2023-02-27T20:20:45.329Z,99773.45
2023-02-27T20:25:00.046Z,99776.92
2023-02-27T20:26:45.344Z,99776.52
2023-02-27T20:28:32.251Z,99772.98
2023-02-27T20:30:40.240Z,99769.34
2023-02-27T20:32:53.625Z,99772.70
2023-02-27T20:35:19.307Z,99781.42
2023-02-27T20:37:35.704Z,99782.64
2023-02-27T20:39:51.310Z,99784.61
2023-02-27T20:41:55.418Z,99785.73
2023-02-27T20:44:10.974Z,99784.83
2023-02-27T20:46:07.389Z,99790.15
2023-02-27T20:48:33.377Z,99790.01
2023-02-27T20:50:36.111Z,99791.75
2023-02-27T20:53:02.270Z,99788.74
2023-02-27T20:54:51.145Z,99795.29
2023-02-27T20:56:43.276Z,99790.36
2023-02-27T20:58:05.598Z,99793.09
2023-02-27T21:00:32.005Z,99794.70
2023-02-27T21:02:37.107Z,99789.95
2023-02-27T21:05:02.763Z,99794.02
2023-02-27T21:07:14.621Z,99794.92
2023-02-27T21:09:13.006Z,99800.83
2023-02-27T21:11:33.033Z,99802.04
2023-02-27T21:13:52.080Z,99804.84
2023-02-27T21:16:18.432Z,99805.88
2023-02-27T21:18:33.272Z,99804.64
2023-02-27T21:20:38.134Z,99810.23
2023-02-27T21:25:25.165Z,99806.90
2023-02-27T21:27:39.468Z,99805.48
2023-02-27T21:30:13.995Z,99804.94
2023-02-27T21:32:19.109Z,99801.51
2023-02-27T21:34:31.487Z,99803.58
2023-02-27T21:36:28.997Z,99800.66
2023-02-27T21:38:54.605Z,99810.55
2023-02-27T21:41:11.710Z,99812.41
2023-02-27T21:43:26.864Z,99812.64
2023-02-27T21:45:50.097Z,99810.51
2023-02-27T21:48:04.828Z,99819.70
2023-02-27T21:50:22.262Z,99818.05
2023-02-27T21:52:39.238Z,99811.58
2023-02-27T21:55:05.895Z,99812.20
2023-02-27T21:57:16.433Z,99816.93
2023-02-27T21:59:44.069Z,99813.90
2023-02-27T22:01:42.145Z,99819.55
2023-02-27T22:04:08.318Z,99813.79
2023-02-27T22:06:04.644Z,99818.17
2023-02-27T22:08:20.377Z,99819.65
2023-02-27T22:10:36.421Z,99823.42
2023-02-27T22:12:51.405Z,99820.99
2023-02-27T22:15:13.460Z,99810.90
2023-02-27T22:17:13.537Z,99823.48
2023-02-27T22:19:19.921Z,99822.25
2023-02-27T22:21:46.002Z,99825.25
2023-02-27T22:24:00.537Z,99824.48
2023-02-27T22:26:16.985Z,99823.98
2023-02-27T22:28:29.782Z,99824.86
2023-02-27T22:30:32.740Z,99821.44
2023-02-27T22:32:35.366Z,99825.71
2023-02-27T22:35:01.326Z,99828.02
2023-02-27T22:37:06.603Z,99830.08
2023-02-27T22:39:25.630Z,99834.88
2023-02-27T22:41:51.069Z,99837.67
2023-02-27T22:44:05.454Z,99839.60
2023-02-27T22:46:32.119Z,99837.51
2023-02-27T22:49:14.312Z,99837.29
2023-02-27T22:51:34.442Z,99843.10
2023-02-27T22:53:53.098Z,99848.16
2023-02-27T22:56:03.296Z,99847.71
2023-02-27T22:58:29.728Z,99845.98
2023-02-27T23:00:43.744Z,99848.39
2023-02-27T23:03:06.221Z,99845.02
2023-02-27T23:05:12.020Z,99853.23
2023-02-27T23:07:38.102Z,99851.91
2023-02-27T23:09:54.502Z,99853.44
2023-02-27T23:12:13.799Z,99858.93
2023-02-27T23:14:30.161Z,99860.02
2023-02-27T23:16:46.768Z,99862.66
2023-02-27T23:18:45.867Z,99862.56
2023-02-27T23:21:25.040Z,99863.96
2023-02-27T23:23:10.130Z,99866.75
2023-02-27T23:25:01.316Z,99869.79
2023-02-27T23:26:48.276Z,99870.06
2023-02-27T23:28:17.247Z,99873.86
2023-02-27T23:29:53.172Z,99873.18
2023-02-27T23:31:48.321Z,99871.95
2023-02-27T23:33:24.232Z,99868.36
2023-02-27T23:35:04.507Z,99867.31
2023-02-27T23:36:41.060Z,99868.81
2023-02-27T23:38:10.325Z,99867.89
2023-02-27T23:39:54.113Z,99865.62
2023-02-27T23:41:32.987Z,99861.81
2023-02-27T23:43:25.734Z,99862.23
2023-02-27T23:45:23.557Z,99859.08
2023-02-27T23:47:08.442Z,99860.44
2023-02-27T23:49:03.114Z,99860.14
2023-02-27T23:50:58.121Z,99855.19
2023-02-27T23:52:28.144Z,99861.05
2023-02-27T23:54:04.487Z,99863.88
2023-02-27T23:55:59.143Z,99866.56
2023-02-27T23:57:54.149Z,99866.50
2023-02-27T23:59:30.439Z,99869.46
